• Join FlightAware (Why Join?)
  • Login
  • US Flag 
11:00AM EDT


 

Airport Tracker/Info


-or-


 

Live Flight TrackerFlight Track Log ✈ UAL936 ✈ 28-Feb-2012 ✈ KIAD - LSZH / ZRH

Flight Track Log - Related Links

Times and Time Zones

All times are in EST time to prevent confusion due to time zone crossing. See the UAL936 flight status page for this flight to view local times or setup timezone preferences in your user account.

Time Position Orientation Groundspeed Altitude Reporting Facility
EST Latitude Longitude Course Direction KTS MPH feet Rate Location/Type
06:02PM 38.9667 -77.3246 304° West  Level FlightAware Approximate
06:03PM 39.0333 -77.4500 349° North 243 280 3,300  Level Potomac TRACON
06:04PM 39.1000 -77.4667 38° Northeast 262 302 6,500 2,880 Climbing Potomac TRACON
06:06PM 39.1667 -77.4000 90° East 299 344 9,400 2,100 Climbing Potomac TRACON
06:06PM 39.1667 -77.3000 109° East 353 406 10,800 1,500 Climbing Potomac TRACON
06:08PM 39.1064 -77.0736 104° East 414 476 13,500 1,680 Climbing Washington Center
06:09PM 39.0750 -76.9178 82° East 435 501 15,400 1,800 Climbing Washington Center
06:10PM 39.0976 -76.7175 81° East 474 545 17,400 1,860 Climbing FlightAware ADS-B
06:11PM 39.1082 -76.6273 81° East 483 556 18,500 1,920 Climbing FlightAware ADS-B
06:12PM 39.1239 -76.4952 81° East 487 560 19,900 1,860 Climbing FlightAware ADS-B
06:12PM 39.1347 -76.4056 81° East 496 571 20,900 1,740 Climbing FlightAware ADS-B
06:13PM 39.1453 -76.3159 81° East 502 578 21,700 1,560 Climbing FlightAware ADS-B
06:13PM 39.1561 -76.2254 81° East 510 587 22,500 1,260 Climbing FlightAware ADS-B
06:14PM 39.1669 -76.1336 82° East 517 595 23,000 420 Climbing FlightAware ADS-B
06:14PM 39.1791 -76.0273 80° East 517 595 23,000  Level FlightAware ADS-B
06:15PM 39.1905 -75.9399 72° East 509 586 23,000  Level FlightAware ADS-B
06:15PM 39.1961 -75.9176 66° East 506 582 23,000 660 Level FlightAware ADS-B
06:15PM 39.2057 -75.8896 60° Northeast 503 579 23,200 1,200 Climbing FlightAware ADS-B
06:15PM 39.2171 -75.8642 56° Northeast 501 577 23,400 1,080 Climbing FlightAware ADS-B
06:15PM 39.2253 -75.8484 50° Northeast 500 575 23,500 900 Climbing FlightAware ADS-B
06:15PM 39.2443 -75.8194 45° Northeast 497 572 23,700 1,320 Climbing FlightAware ADS-B
06:16PM 39.3115 -75.7319 45° Northeast 501 577 24,700 1,260 Climbing FlightAware ADS-B
06:17PM 39.3630 -75.6653 45° Northeast 506 582 25,300 1,380 Climbing FlightAware ADS-B
06:17PM 39.4195 -75.5923 45° Northeast 507 583 26,200 1,620 Climbing FlightAware ADS-B
06:18PM 39.4711 -75.5257 45° Northeast 506 582 27,100 1,680 Climbing FlightAware ADS-B
06:18PM 39.5218 -75.4600 45° Northeast 505 581 28,000 1,620 Climbing FlightAware ADS-B
06:19PM 39.5729 -75.3935 45° Northeast 505 581 28,800 1,440 Climbing FlightAware ADS-B
06:19PM 39.6235 -75.3275 45° Northeast 506 582 29,500 1,320 Climbing FlightAware ADS-B
06:20PM 39.6618 -75.2769 47° Northeast 511 588 30,000 1,380 Climbing FlightAware ADS-B
06:20PM 39.7120 -75.2059 48° Northeast 511 588 30,800 960 Climbing FlightAware ADS-B
06:21PM 39.7597 -75.1372 48° Northeast 510 587 31,000 180 Climbing FlightAware ADS-B
06:21PM 39.8160 -75.0567 48° Northeast 508 585 31,000  Level FlightAware ADS-B
06:22PM 39.8745 -74.9734 48° Northeast 506 582 31,000  Level FlightAware ADS-B
06:22PM 39.9248 -74.9017 48° Northeast 503 579 31,000 360 Level FlightAware ADS-B
06:23PM 39.9720 -74.8342 48° Northeast 503 579 31,400 1,080 Climbing FlightAware ADS-B
06:24PM 40.0199 -74.7654 55° Northeast 500 575 32,100 1,440 Climbing FlightAware ADS-B
06:24PM 40.0386 -74.7302 67° East 517 595 32,500 1,200 Climbing FlightAware ADS-B
06:24PM 40.0675 -74.6404 67° East 521 600 33,000 480 Climbing FlightAware ADS-B
06:25PM 40.0967 -74.5498 67° East 518 596 33,000  Level FlightAware ADS-B
06:25PM 40.1293 -74.4492 69° East 518 596 33,000  Level FlightAware ADS-B
06:26PM 40.1555 -74.3589 70° East 521 600 33,000  Level FlightAware ADS-B
06:26PM 40.1821 -74.2650 70° East 523 602 33,000  Level FlightAware ADS-B
06:27PM 40.2081 -74.1732 70° East 524 603 33,000  Level FlightAware ADS-B
06:27PM 40.2340 -74.0808 70° East 526 605 33,000  Level FlightAware ADS-B
06:28PM 40.2635 -73.9751 70° East 528 608 33,000  Level FlightAware ADS-B
06:29PM 40.3052 -73.8254 70° East 529 609 33,000  Level FlightAware ADS-B
06:30PM 40.3414 -73.6942 70° East 532 612 33,000  Level FlightAware ADS-B
06:30PM 40.3782 -73.5593 70° East 534 615 33,000  Level FlightAware ADS-B
06:31PM 40.4202 -73.4040 70° East 534 615 33,000  Level FlightAware ADS-B
06:32PM 40.4695 -73.2208 71° East 534 615 33,000  Level FlightAware ADS-B
06:33PM 40.5200 -73.0323 67° East 531 611 33,000  Level FlightAware ADS-B
06:34PM 40.5319 -72.9944 71° East 528 608 33,000  Level Boston Center
06:35PM 40.6053 -72.7088 70° East 528 608 33,000  Level FlightAware ADS-B
06:36PM 40.6267 -72.6314 70° East 523 602 33,000  Level Boston Center
06:37PM 40.6769 -72.4483 71° East 523 602 33,000  Level Boston Center
06:38PM 40.7247 -72.2647 72° East 523 602 33,000  Level Boston Center
06:39PM 40.7742 -72.0647 69° East 523 602 33,000  Level Boston Center
06:40PM 40.8256 -71.8861 71° East 523 602 33,000  Level Boston Center
06:41PM 40.8725 -71.7044 74° East 523 602 33,000  Level Boston Center
06:42PM 40.9147 -71.5089 62° Northeast 529 609 33,000  Level Boston Center
06:43PM 40.9800 -71.3431 59° Northeast 524 603 33,000  Level Boston Center
06:44PM 41.0492 -71.1878 63° Northeast 499 574 33,000  Level Boston Center
06:45PM 41.1158 -71.0156 62° Northeast 499 574 33,000  Level Boston Center
06:46PM 41.1825 -70.8458 61° Northeast 504 580 33,000  Level Boston Center
06:47PM 41.2508 -70.6786 63° Northeast 504 580 33,000  Level Boston Center
06:48PM 41.3147 -70.5111 65° Northeast 504 580 33,000  Level Boston Center
06:49PM 41.3783 -70.3319 62° Northeast 509 586 33,000  Level Boston Center
06:50PM 41.4439 -70.1664 62° Northeast 509 586 33,000  Level Boston Center
06:51PM 41.5131 -69.9947 63° Northeast 509 586 33,000  Level Boston Center
06:52PM 41.5761 -69.8258 61° Northeast 509 586 33,000  Level Boston Center
06:53PM 41.6450 -69.6564 63° Northeast 509 586 33,000  Level Boston Center
06:54PM 41.7094 -69.4839 62° Northeast 514 592 33,000  Level Boston Center
06:55PM 41.7758 -69.3167 63° Northeast 514 592 33,000  Level Boston Center
06:56PM 41.8417 -69.1433 66° East 514 592 33,000  Level Boston Center
06:57PM 41.9000 -68.9667 62° Northeast 520 598 33,000  Level Moncton Center
06:58PM 41.9667 -68.8000 64° Northeast 520 598 33,000  Level Moncton Center
06:59PM 42.0333 -68.6167 66° East 520 598 33,000  Level Moncton Center
07:00PM 42.1000 -68.4167 62° Northeast 520 598 33,000  Level Moncton Center
07:01PM 42.1667 -68.2500 70° East 520 598 33,000  Level Moncton Center
07:02PM 42.2167 -68.0667 50° Northeast 520 598 33,000  Level Moncton Center
07:03PM 42.2964 -67.9400 62° Northeast 509 586 33,000  Level Boston Center
07:04PM 42.3625 -67.7692 65° Northeast 509 586 33,000  Level Boston Center
07:05PM 42.4239 -67.5872 64° Northeast 509 586 33,000  Level Boston Center
07:06PM 42.4850 -67.4136 64° Northeast 509 586 33,000  Level Boston Center
07:07PM 42.5500 -67.2361 66° East 509 586 33,000  Level Boston Center
07:08PM 42.6167 -67.0333 70° East 520 598 33,000  Level Moncton Center
07:09PM 42.6667 -66.8500 58° Northeast 520 598 33,000  Level Moncton Center
07:10PM 42.7500 -66.6667 70° East 510 587 33,000  Level Moncton Center
07:11PM 42.8000 -66.4833 59° Northeast 510 587 33,000  Level Moncton Center
07:12PM 42.8667 -66.3333 70° East 510 587 33,000  Level Moncton Center
07:13PM 42.9167 -66.1500 64° Northeast 510 587 33,000  Level Moncton Center
07:14PM 42.9833 -65.9667 63° Northeast 510 587 33,000  Level Moncton Center
07:15PM 43.0500 -65.7833 59° Northeast 510 587 33,000  Level Moncton Center
07:16PM 43.1167 -65.6333 69° East 500 575 33,000  Level Moncton Center
07:17PM 43.1667 -65.4500 64° Northeast 510 587 33,000  Level Moncton Center
07:19PM 43.2833 -65.1167 63° Northeast 500 575 33,000  Level Moncton Center
07:20PM 43.3500 -64.9333 68° East 510 587 33,000  Level Moncton Center
07:21PM 43.4000 -64.7667 63° Northeast 510 587 33,000  Level Moncton Center
07:22PM 43.4667 -64.5833 69° East 510 587 33,000  Level Moncton Center
07:23PM 43.5167 -64.4000 65° Northeast 510 587 33,000  Level Moncton Center
07:25PM 43.6333 -64.0500 63° Northeast 510 587 33,000  Level Moncton Center
07:26PM 43.7000 -63.8667 69° East 510 587 33,000  Level Moncton Center
07:27PM 43.7500 -63.6833 63° Northeast 520 598 33,000  Level Moncton Center
07:28PM 43.8167 -63.5000 65° Northeast 510 587 33,000  Level Moncton Center
07:29PM 43.8833 -63.3000 66° East 510 587 33,000  Level Moncton Center
07:30PM 43.9667 -63.0333 69° East 510 587 33,000  Level Gander Center
07:31PM 44.0167 -62.8500 74° East 510 587 33,000  Level Gander Center
07:32PM 44.0333 -62.7667 63° Northeast 510 587 33,000  Level Moncton Center
07:33PM 44.1000 -62.5833 67° East 510 587 33,000  Level Moncton Center
07:34PM 44.1500 -62.4167 63° Northeast 510 587 33,000  Level Moncton Center
07:35PM 44.2167 -62.2333 65° Northeast 510 587 33,000  Level Moncton Center
07:36PM 44.2833 -62.0333 67° East 510 587 33,000  Level Moncton Center
07:37PM 44.3333 -61.8667 69° East 510 587 33,000  Level Moncton Center
07:38PM 44.3833 -61.6833 69° East 510 587 33,000  Level Moncton Center
07:39PM 44.4333 -61.5000 65° Northeast 510 587 33,000  Level Moncton Center
07:40PM 44.5000 -61.3000 74° East 510 587 33,000  Level Moncton Center
07:41PM 44.5333 -61.1333 61° Northeast 510 587 33,000  Level Moncton Center
07:41PM 44.5667 -61.0500 63° Northeast 510 587 33,000  Level Gander Center
07:42PM 44.6333 -60.8667 79° East 510 587 33,000  Level Gander Center
07:43PM 44.6500 -60.7500 69° East 510 587 33,000  Level Moncton Center
07:44PM 44.7000 -60.5667 74° East 500 575 33,000  Level Moncton Center
07:44PM 44.7167 -60.4833 69° East 510 587 33,000  Level Gander Center
07:45PM 44.7667 -60.3000 50° Northeast 510 587 33,000  Level Gander Center
07:46PM 44.8167 -60.2167 79° East 510 587 33,000  Level Moncton Center
07:46PM 44.8333 -60.1000 71° East 510 587 33,000  Level Gander Center
07:47PM 44.8500 -60.0333 65° Northeast 510 587 33,000  Level Moncton Center
07:48PM 44.9167 -59.8333 74° East 510 587 33,000  Level Moncton Center
07:48PM 44.9333 -59.7500 69° East 500 575 33,000  Level Gander Center
07:49PM 44.9833 -59.5667 65° Northeast 510 587 33,000  Level Gander Center
07:50PM 45.0167 -59.4667 76° East 500 575 33,000  Level Moncton Center
07:51PM 45.0500 -59.2833 60° Northeast 500 575 33,000  Level Moncton Center
07:52PM 45.1167 -59.1167 77° East 500 575 33,000  Level Moncton Center
07:53PM 45.1500 -58.9167 65° Northeast 500 575 33,000  Level Moncton Center
07:53PM 45.1833 -58.8167 69° East 500 575 33,000  Level Gander Center
07:54PM 45.2333 -58.6333 74° East 500 575 33,000  Level Gander Center
07:55PM 45.2500 -58.5500 65° Northeast 500 575 33,000  Level Moncton Center
07:56PM 45.3167 -58.3500 74° East 500 575 33,000  Level Moncton Center
07:56PM 45.3333 -58.2667 69° East 500 575 33,000  Level Gander Center
07:57PM 45.3833 -58.0833 75° East 500 575 33,000  Level Gander Center
07:58PM 45.4167 -57.9000 69° East 500 575 33,000  Level Gander Center
07:59PM 45.4667 -57.7167 65° Northeast 500 575 33,000  Level Gander Center
08:00PM 45.5000 -57.6167 70° East 500 575 33,000  Level Moncton Center
08:01PM 45.5667 -57.3500 70° East 500 575 33,000  Level Gander Center
08:02PM 45.6167 -57.1500 75° East 500 575 33,000  Level Gander Center
08:03PM 45.6500 -56.9667 77° East 500 575 33,000  Level Gander Center
08:04PM 45.6667 -56.8667 64° Northeast 500 575 33,000  Level Moncton Center
08:05PM 45.7333 -56.6667 77° East 500 575 33,000  Level Moncton Center
08:05PM 45.7500 -56.5667 74° East 500 575 33,000  Level Gander Center
08:06PM 45.7833 -56.4000 78° East 510 587 33,000  Level Gander Center
08:07PM 45.8000 -56.2833 69° East 500 575 33,000  Level Moncton Center
08:08PM 45.8500 -56.1000 78° East 510 587 33,000  Level Moncton Center
08:08PM 45.8667 -55.9833 74° East 510 587 33,000  Level Gander Center
08:09PM 45.8833 -55.9000 74° East 510 587 33,000  Level Moncton Center
08:09PM 45.9000 -55.8167 72° East 510 587 33,000  Level Gander Center
08:10PM 45.9500 -55.6000 73° East 510 587 33,000  Level Gander Center
08:11PM 46.0000 -55.3667 76° East 510 587 33,000  Level Gander Center
08:12PM 46.0333 -55.1667 68° East 510 587 33,000  Level Gander Center
08:13PM 46.0833 -54.9833 81° East 510 587 33,000  Level Gander Center
08:14PM 46.1000 -54.8333 64° Northeast 510 587 33,000  Level Gander Center
08:15PM 46.1667 -54.6333 78° East 510 587 33,000 60 Level Gander Center
08:16PM 46.1833 -54.5167 74° East 510 587 33,100 360 Climbing Moncton Center
08:17PM 46.2167 -54.3500 76° East 510 587 33,600 480 Climbing Moncton Center
08:18PM 46.2500 -54.1500 78° East 510 587 34,100 420 Climbing Moncton Center
08:18PM 46.2667 -54.0333 68° East 500 575 34,300 420 Climbing Gander Center
08:19PM 46.3167 -53.8500 75° East 500 575 34,800 300 Climbing Gander Center
08:20PM 46.3500 -53.6667 90° East 500 575 35,000 120 Climbing Gander Center
08:21PM 46.3500 -53.5667 71° East 500 575 35,000  Level Moncton Center
08:22PM 46.4000 -53.3500 76° East 500 575 35,000  Level Moncton Center
08:23PM 46.4333 -53.1500 76° East 500 575 35,000  Level Moncton Center
08:24PM 46.4667 -52.9500 68° East 510 587 35,000  Level Moncton Center
08:25PM 46.5167 -52.7667 76° East 500 575 35,000  Level Moncton Center
08:26PM 46.5500 -52.5667 80° East 500 575 35,000  Level Moncton Center
08:26PM 46.5667 -52.4333 76° East 500 575 35,000  Level Gander Center
08:27PM 46.6000 -52.2333 76° East 500 575 35,000  Level Gander Center
08:28PM 46.6333 -52.0333 76° East 510 587 35,000  Level Gander Center
08:29PM 46.6667 -51.8333 68° East 510 587 35,000  Level Gander Center
08:30PM 46.7167 -51.6500 82° East 510 587 35,000  Level Gander Center
08:31PM 46.7333 -51.4833 75° East 510 587 35,000  Level Gander Center
08:32PM 46.7667 -51.3000 78° East 510 587 35,000  Level Gander Center
08:33PM 46.7833 -51.1833 78° East 510 587 35,000  Level Moncton Center
08:33PM 46.8000 -51.0667 74° East 510 587 35,000  Level Gander Center
08:34PM 46.8167 -50.9833 81° East 510 587 35,000  Level Moncton Center
08:34PM 46.8333 -50.8333 76° East 510 587 35,000  Level Gander Center
08:35PM 46.8667 -50.6333 74° East 510 587 35,000  Level Gander Center
08:36PM 46.9000 -50.4667 75° East 520 598 35,000  Level Gander Center
08:37PM 46.9333 -50.2833 78° East 520 598 35,000  Level Gander Center
08:38PM 46.9667 -50.0500 75° East 520 598 35,000  Level Gander Center
08:39PM 47.0000 -49.8667 70° East 520 598 35,000  Level Gander Center
08:40PM 47.0500 -49.6667 71° East 530 610 35,000  Level Gander Center
08:41PM 47.1000 -49.4500 66° East 530 610 35,000  Level Gander Center
08:42PM 47.1667 -49.2333 75° East 530 610 35,000  Level Gander Center
08:43PM 47.2000 -49.0500 70° East 530 610 35,000  Level Gander Center
08:44PM 47.2500 -48.8500 71° East 520 598 35,000  Level Gander Center
08:45PM 47.3000 -48.6333 68° East 530 610 35,000  Level Gander Center
08:46PM 47.3500 -48.4500 71° East 540 621 35,000  Level Gander Center
08:47PM 47.4000 -48.2333 76° East 530 610 35,000  Level Gander Center
08:48PM 47.4333 -48.0333 71° East 530 610 35,000  Level Gander Center
08:49PM 47.4833 -47.8167 71° East 540 621 35,000  Level Gander Center
08:50PM 47.5333 -47.6000 75° East 530 610 35,000  Level Gander Center
08:51PM 47.5667 -47.4167 65° Northeast 530 610 35,000  Level Gander Center
08:52PM 47.6333 -47.2000 77° East 540 621 35,000  Level Gander Center
08:53PM 47.6667 -46.9833 76° East 530 610 35,000  Level Gander Center
08:54PM 47.7000 -46.7833 65° Northeast 530 610 35,000  Level Gander Center
08:55PM 47.7667 -46.5667 70° East 530 610 35,000  Level Gander Center
09:02PM 48.0774 -45.2396 71° East  Level FlightAware Approximate
09:03PM 48.1274 -45.0555 71° East  Level FlightAware Approximate
09:04PM 48.1771 -44.8711 71° East  Level FlightAware Approximate
09:05PM 48.2264 -44.6863 71° East  Level FlightAware Approximate
09:06PM 48.2755 -44.5011 72° East  Level FlightAware Approximate
09:07PM 48.3242 -44.3156 72° East  Level FlightAware Approximate
09:08PM 48.3727 -44.1298 72° East  Level FlightAware Approximate
09:09PM 48.4209 -43.9436 72° East  Level FlightAware Approximate
09:10PM 48.4688 -43.7570 72° East  Level FlightAware Approximate
09:11PM 48.5163 -43.5701 72° East  Level FlightAware Approximate
09:12PM 48.5636 -43.3828 73° East  Level FlightAware Approximate
09:13PM 48.6106 -43.1952 73° East  Level FlightAware Approximate
09:14PM 48.6572 -43.0072 73° East  Level FlightAware Approximate
09:15PM 48.7036 -42.8189 73° East  Level FlightAware Approximate
09:16PM 48.7496 -42.6303 73° East  Level FlightAware Approximate
09:17PM 48.7953 -42.4413 73° East  Level FlightAware Approximate
09:18PM 48.8408 -42.2519 73° East  Level FlightAware Approximate
09:19PM 48.8859 -42.0622 74° East  Level FlightAware Approximate
09:20PM 48.9307 -41.8722 74° East  Level FlightAware Approximate
09:21PM 48.9752 -41.6818 74° East  Level FlightAware Approximate
09:22PM 49.0193 -41.4911 74° East  Level FlightAware Approximate
09:23PM 49.0631 -41.3005 74° East  Level FlightAware Approximate
09:24PM 49.1066 -41.1095 74° East  Level FlightAware Approximate
09:25PM 49.1497 -40.9182 75° East  Level FlightAware Approximate
09:26PM 49.1925 -40.7265 75° East  Level FlightAware Approximate
09:27PM 49.2350 -40.5345 75° East  Level FlightAware Approximate
09:28PM 49.2772 -40.3422 75° East  Level FlightAware Approximate
09:29PM 49.3217 -40.1509 75° East  Level FlightAware Approximate
09:30PM 49.3658 -39.9593 75° East  Level FlightAware Approximate
09:31PM 49.4097 -39.7673 76° East  Level FlightAware Approximate
09:32PM 49.4532 -39.5751 76° East  Level FlightAware Approximate
09:33PM 49.4964 -39.3824 76° East  Level FlightAware Approximate
09:34PM 49.5393 -39.1894 76° East  Level FlightAware Approximate
09:35PM 49.5818 -38.9961 76° East  Level FlightAware Approximate
09:36PM 49.6240 -38.8024 76° East  Level FlightAware Approximate
09:37PM 49.6660 -38.6085 77° East  Level FlightAware Approximate
09:38PM 49.7075 -38.4141 77° East  Level FlightAware Approximate
09:39PM 49.7488 -38.2195 77° East  Level FlightAware Approximate
09:40PM 49.7897 -38.0245 77° East  Level FlightAware Approximate
09:41PM 49.8303 -37.8292 77° East  Level FlightAware Approximate
09:42PM 49.8706 -37.6335 78° East  Level FlightAware Approximate
09:43PM 49.9105 -37.4376 78° East  Level FlightAware Approximate
09:44PM 49.9501 -37.2413 78° East  Level FlightAware Approximate
09:45PM 49.9894 -37.0447 78° East  Level FlightAware Approximate
09:46PM 50.0284 -36.8478 78° East  Level FlightAware Approximate
09:47PM 50.0670 -36.6505 78° East  Level FlightAware Approximate
09:48PM 50.1053 -36.4529 79° East  Level FlightAware Approximate
09:49PM 50.1432 -36.2551 79° East  Level FlightAware Approximate
09:50PM 50.1808 -36.0569 79° East  Level FlightAware Approximate
09:51PM 50.2181 -35.8584 79° East  Level FlightAware Approximate
09:52PM 50.2550 -35.6595 79° East  Level FlightAware Approximate
09:53PM 50.2916 -35.4604 80° East  Level FlightAware Approximate
09:54PM 50.3279 -35.2610 80° East  Level FlightAware Approximate
09:55PM 50.3638 -35.0613 80° East  Level FlightAware Approximate
09:56PM 50.3993 -34.8613 80° East  Level FlightAware Approximate
09:57PM 50.4346 -34.6609 80° East  Level FlightAware Approximate
09:58PM 50.4695 -34.4603 81° East  Level FlightAware Approximate
09:59PM 50.5040 -34.2594 81° East  Level FlightAware Approximate
10:00PM 50.5382 -34.0582 81° East  Level FlightAware Approximate
10:01PM 50.5720 -33.8567 81° East  Level FlightAware Approximate
10:02PM 50.6055 -33.6549 81° East  Level FlightAware Approximate
10:03PM 50.6386 -33.4528 81° East  Level FlightAware Approximate
10:04PM 50.6714 -33.2504 82° East  Level FlightAware Approximate
10:05PM 50.7039 -33.0478 82° East  Level FlightAware Approximate
10:06PM 50.7360 -32.8449 82° East  Level FlightAware Approximate
10:07PM 50.7677 -32.6417 82° East  Level FlightAware Approximate
10:08PM 50.7991 -32.4382 82° East  Level FlightAware Approximate
10:09PM 50.8301 -32.2345 83° East  Level FlightAware Approximate
10:10PM 50.8608 -32.0304 83° East  Level FlightAware Approximate
10:11PM 50.8911 -31.8262 83° East  Level FlightAware Approximate
10:12PM 50.9211 -31.6216 83° East  Level FlightAware Approximate
10:13PM 50.9507 -31.4168 83° East  Level FlightAware Approximate
10:14PM 50.9799 -31.2118 84° East  Level FlightAware Approximate
10:15PM 51.0088 -31.0064 84° East  Level FlightAware Approximate
10:16PM 51.0373 -30.8008 84° East  Level FlightAware Approximate
10:17PM 51.0655 -30.5950 84° East  Level FlightAware Approximate
10:18PM 51.0933 -30.3889 85° East  Level FlightAware Approximate
10:19PM 51.1207 -30.1826 85° East  Level FlightAware Approximate
10:20PM 51.1478 -29.9760 85° East  Level FlightAware Approximate
10:21PM 51.1745 -29.7692 85° East  Level FlightAware Approximate
10:22PM 51.2009 -29.5622 85° East  Level FlightAware Approximate
10:23PM 51.2268 -29.3549 86° East  Level FlightAware Approximate
10:24PM 51.2525 -29.1474 86° East  Level FlightAware Approximate
10:25PM 51.2777 -28.9396 86° East  Level FlightAware Approximate
10:26PM 51.3026 -28.7317 86° East  Level FlightAware Approximate
10:27PM 51.3271 -28.5235 86° East  Level FlightAware Approximate
10:28PM 51.3512 -28.3151 87° East  Level FlightAware Approximate
10:29PM 51.3750 -28.1064 87° East  Level FlightAware Approximate
10:30PM 51.3984 -27.8976 87° East  Level FlightAware Approximate
10:31PM 51.4214 -27.6885 87° East  Level FlightAware Approximate
10:32PM 51.4441 -27.4792 88° East  Level FlightAware Approximate
10:33PM 51.4570 -27.2678 88° East  Level FlightAware Approximate
10:34PM 51.4695 -27.0562 88° East  Level FlightAware Approximate
10:35PM 51.4816 -26.8445 88° East  Level FlightAware Approximate
10:36PM 51.4934 -26.6327 88° East  Level FlightAware Approximate
10:37PM 51.5047 -26.4207 89° East  Level FlightAware Approximate
10:38PM 51.5157 -26.2087 89° East  Level FlightAware Approximate
10:39PM 51.5263 -25.9966 89° East  Level FlightAware Approximate
10:40PM 51.5365 -25.7843 89° East  Level FlightAware Approximate
10:41PM 51.5464 -25.5720 89° East  Level FlightAware Approximate
10:42PM 51.5558 -25.3596 90° East  Level FlightAware Approximate
10:43PM 51.5649 -25.1471 90° East  Level FlightAware Approximate
10:44PM 51.5736 -24.9345 90° East  Level FlightAware Approximate
10:45PM 51.5819 -24.7219 90° East  Level FlightAware Approximate
10:46PM 51.5898 -24.5091 90° East  Level FlightAware Approximate
10:47PM 51.5973 -24.2963 91° East  Level FlightAware Approximate
10:48PM 51.6045 -24.0835 91° East  Level FlightAware Approximate
10:49PM 51.6112 -23.8705 91° East  Level FlightAware Approximate
10:50PM 51.6176 -23.6575 91° East  Level FlightAware Approximate
10:51PM 51.6236 -23.4444 91° East  Level FlightAware Approximate
10:52PM 51.6292 -23.2313 92° East  Level FlightAware Approximate
10:53PM 51.6344 -23.0182 92° East  Level FlightAware Approximate
10:54PM 51.6392 -22.8050 92° East  Level FlightAware Approximate
10:55PM 51.6437 -22.5917 92° East  Level FlightAware Approximate
10:56PM 51.6477 -22.3784 92° East  Level FlightAware Approximate
10:57PM 51.6514 -22.1651 93° East  Level FlightAware Approximate
10:58PM 51.6547 -21.9517 93° East  Level FlightAware Approximate
10:59PM 51.6576 -21.7383 93° East  Level FlightAware Approximate
11:00PM 51.6601 -21.5249 93° East  Level FlightAware Approximate
11:01PM 51.6622 -21.3114 93° East  Level FlightAware Approximate
11:02PM 51.6640 -21.0980 94° East  Level FlightAware Approximate
11:03PM 51.6653 -20.8845 94° East  Level FlightAware Approximate
11:04PM 51.6663 -20.6710 94° East  Level FlightAware Approximate
11:05PM 51.6669 -20.4575 94° East  Level FlightAware Approximate
11:06PM 51.6670 -20.2440 95° East  Level FlightAware Approximate
11:07PM 51.6591 -20.0309 95° East  Level FlightAware Approximate
11:08PM 51.6508 -19.8179 95° East  Level FlightAware Approximate
11:09PM 51.6421 -19.6049 95° East  Level FlightAware Approximate
11:10PM 51.6331 -19.3921 95° East  Level FlightAware Approximate
11:11PM 51.6236 -19.1793 95° East  Level FlightAware Approximate
11:12PM 51.6138 -18.9666 96° East  Level FlightAware Approximate
11:13PM 51.6035 -18.7540 96° East  Level FlightAware Approximate
11:14PM 51.5929 -18.5415 96° East  Level FlightAware Approximate
11:15PM 51.5819 -18.3292 96° East  Level FlightAware Approximate
11:16PM 51.5706 -18.1169 96° East  Level FlightAware Approximate
11:17PM 51.5588 -17.9047 97° East  Level FlightAware Approximate
11:18PM 51.5467 -17.6926 97° East  Level FlightAware Approximate
11:19PM 51.5341 -17.4807 97° East  Level FlightAware Approximate
11:20PM 51.5212 -17.2689 97° East  Level FlightAware Approximate
11:21PM 51.5079 -17.0571 97° East  Level FlightAware Approximate
11:22PM 51.4943 -16.8456 98° East  Level FlightAware Approximate
11:23PM 51.4802 -16.6341 98° East  Level FlightAware Approximate
11:24PM 51.4658 -16.4228 98° East  Level FlightAware Approximate
11:25PM 51.4510 -16.2116 98° East  Level FlightAware Approximate
11:26PM 51.4358 -16.0005 98° East  Level FlightAware Approximate
11:27PM 51.4202 -15.7896 98° East  Level FlightAware Approximate
11:28PM 51.4043 -15.5789 99° East  Level FlightAware Approximate
11:29PM 51.3880 -15.3682 99° East  Level FlightAware Approximate
11:30PM 51.3713 -15.1578 99° East  Level FlightAware Approximate
11:31PM 51.3542 -14.9475 99° East  Level FlightAware Approximate
11:32PM 51.3368 -14.7373 99° East  Level FlightAware Approximate
11:33PM 51.3189 -14.5274 100° East  Level FlightAware Approximate
11:34PM 51.3007 -14.3175 100° East  Level FlightAware Approximate
11:35PM 51.2808 -14.1082 100° East  Level FlightAware Approximate
11:36PM 51.2604 -13.8991 100° East  Level FlightAware Approximate
11:37PM 51.2397 -13.6901 100° East  Level FlightAware Approximate
11:38PM 51.2186 -13.4814 101° East  Level FlightAware Approximate
11:39PM 51.1971 -13.2728 101° East  Level FlightAware Approximate
11:40PM 51.1752 -13.0644 101° East  Level FlightAware Approximate
11:41PM 51.1530 -12.8563 101° East  Level FlightAware Approximate
11:42PM 51.1304 -12.6483 101° East  Level FlightAware Approximate
11:43PM 51.1075 -12.4405 102° East  Level FlightAware Approximate
11:44PM 51.0841 -12.2330 102° East  Level FlightAware Approximate
11:45PM 51.0605 -12.0256 102° East  Level FlightAware Approximate
11:46PM 51.0364 -11.8185 102° East  Level FlightAware Approximate
11:47PM 51.0120 -11.6116 102° East  Level FlightAware Approximate
11:48PM 50.9872 -11.4049 103° East  Level FlightAware Approximate
11:49PM 50.9620 -11.1984 103° East  Level FlightAware Approximate
11:50PM 50.9365 -10.9922 103° East  Level FlightAware Approximate
11:51PM 50.9140 -10.7852 103° East  Level FlightAware Approximate
11:52PM 50.8912 -10.5783 104° East  Level FlightAware Approximate
11:53PM 50.8680 -10.3717 104° East  Level FlightAware Approximate
11:54PM 50.8444 -10.1653 104° East  Level FlightAware Approximate
11:55PM 50.8205 -9.9591 104° East  Level FlightAware Approximate
11:56PM 50.7962 -9.7531 105° East  Level FlightAware Approximate
11:57PM 50.7715 -9.5473 105° East  Level FlightAware Approximate
11:58PM 50.7465 -9.3418 105° East  Level FlightAware Approximate
11:59PM 50.7211 -9.1364 106° East  Level FlightAware Approximate
12:00AM 50.6953 -8.9313 106° East  Level FlightAware Approximate
12:01AM 50.6692 -8.7264 106° East  Level FlightAware Approximate
12:02AM 50.6428 -8.5218 107° East  Level FlightAware Approximate
12:03AM 50.6159 -8.3174 107° East  Level FlightAware Approximate
12:04AM 50.5888 -8.1132 107° East  Level FlightAware Approximate
12:05AM 50.5517 -7.9130 108° East  Level FlightAware Approximate
12:06AM 50.5268 -7.7084 108° East  Level FlightAware Approximate
12:07AM 50.5016 -7.5040 109° East  Level FlightAware Approximate
12:08AM 50.4760 -7.2998 109° East  Level FlightAware Approximate
12:09AM 50.4500 -7.0958 110° East  Level FlightAware Approximate
12:10AM 50.4237 -6.8920 110° East  Level FlightAware Approximate
12:11AM 50.3970 -6.6885 111° Southeast  Level FlightAware Approximate
12:12AM 50.3700 -6.4852 112° Southeast  Level FlightAware Approximate
12:13AM 50.3426 -6.2821 113° Southeast  Level FlightAware Approximate
12:14AM 50.3149 -6.0793 114° Southeast  Level FlightAware Approximate
12:15AM 50.2868 -5.8767 115° Southeast  Level FlightAware Approximate
12:16AM 50.2584 -5.6744 117° Southeast  Level FlightAware Approximate
12:17AM 50.2310 -5.4718 118° Southeast  Level FlightAware Approximate
12:18AM 50.2033 -5.2694 120° Southeast  Level FlightAware Approximate
12:19AM 50.1752 -5.0673 123° Southeast  Level FlightAware Approximate
12:20AM 50.1468 -4.8654 126° Southeast  Level FlightAware Approximate
12:21AM 50.1181 -4.6638 130° Southeast  Level FlightAware Approximate
12:22AM 50.0889 -4.4624 136° Southeast  Level FlightAware Approximate
12:27AM 49.6326 -3.7859 102° East 429 494 37,000  Level FlightAware ADS-B
12:28AM 49.6122 -3.6444 103° East 430 495 37,000  Level FlightAware ADS-B
12:33AM 49.4989 -2.8855 104° East 430 495 37,000  Level FlightAware ADS-B
12:33AM 49.4847 -2.7954 103° East 430 495 37,000  Level FlightAware ADS-B
12:34AM 49.4652 -2.6707 104° East 431 496 37,000  Level FlightAware ADS-B
12:34AM 49.4493 -2.5713 104° East 431 496 37,000  Level FlightAware ADS-B
12:35AM 49.4276 -2.4424 105° East 431 496 37,000  Level FlightAware ADS-B
12:36AM 49.4122 -2.3514 104° East 432 497 37,000  Level FlightAware ADS-B
12:36AM 49.3973 -2.2627 105° East 432 497 37,000  Level FlightAware ADS-B
12:37AM 49.3818 -2.1709 104° East 433 498 37,000  Level FlightAware ADS-B
12:37AM 49.3651 -2.0718 104° East 433 498 37,000  Level FlightAware ADS-B
12:38AM 49.3489 -1.9738 104° East 434 499 37,000  Level FlightAware ADS-B
12:38AM 49.3315 -1.8703 104° East 435 501 37,000  Level FlightAware ADS-B
12:39AM 49.3159 -1.7780 105° East 436 502 37,000  Level FlightAware ADS-B
12:39AM 49.3004 -1.6873 105° East 436 502 37,000  Level FlightAware ADS-B
12:40AM 49.2847 -1.5953 105° East 438 504 37,000  Level FlightAware ADS-B
12:40AM 49.2692 -1.5051 105° East 438 504 37,000  Level FlightAware ADS-B
12:41AM 49.2531 -1.4127 105° East 439 505 37,000  Level FlightAware ADS-B
12:42AM 49.2302 -1.2816 105° East 439 505 37,000  Level FlightAware ADS-B
12:43AM 49.1791 -0.9929 87° East 440 506 37,000  Level FlightAware ADS-B
12:50AM 49.2228 0.4381 105° East  Level FlightAware Approximate
12:51AM 49.1879 0.6336 105° East  Level FlightAware Approximate
12:52AM 49.1527 0.8289 106° East  Level FlightAware Approximate
12:53AM 49.1171 1.0238 106° East  Level FlightAware Approximate
12:54AM 49.0812 1.2185 106° East  Level FlightAware Approximate
12:55AM 49.0450 1.4129 106° East  Level FlightAware Approximate
12:56AM 49.0085 1.6070 106° East  Level FlightAware Approximate
12:57AM 48.9716 1.8008 106° East  Level FlightAware Approximate
12:58AM 48.9345 1.9944 106° East  Level FlightAware Approximate
12:59AM 48.8969 2.1876 107° East  Level FlightAware Approximate
01:00AM 48.8591 2.3806 107° East  Level FlightAware Approximate
01:01AM 48.8210 2.5733 107° East  Level FlightAware Approximate
01:02AM 48.7825 2.7656 108° East  Level FlightAware Approximate
01:03AM 48.7416 2.9566 107° East  Level FlightAware Approximate
01:04AM 48.7028 3.1485 107° East  Level FlightAware Approximate
01:05AM 48.6636 3.3401 107° East  Level FlightAware Approximate
01:06AM 48.6239 3.5322 107° East  Level FlightAware Approximate
01:07AM 48.5839 3.7241 108° East  Level FlightAware Approximate
01:08AM 48.5436 3.9156 108° East  Level FlightAware Approximate
01:09AM 48.5030 4.1068 108° East  Level FlightAware Approximate
01:10AM 48.4620 4.2977 108° East  Level FlightAware Approximate
01:11AM 48.4208 4.4883 108° East  Level FlightAware Approximate
01:12AM 48.3792 4.6785 108° East  Level FlightAware Approximate
01:13AM 48.3373 4.8685 108° East  Level FlightAware Approximate
01:14AM 48.2951 5.0582 109° East  Level FlightAware Approximate
01:15AM 48.2526 5.2475 109° East  Level FlightAware Approximate
01:16AM 48.2092 5.4357 106° East  Level FlightAware Approximate
01:17AM 48.1733 5.6276 108° East  Level FlightAware Approximate
01:18AM 48.1331 5.8176 109° East  Level FlightAware Approximate
01:19AM 48.0887 6.0053 114° Southeast  Level FlightAware Approximate
01:20AM 48.0338 6.1859 109° East  Level FlightAware Approximate
01:21AM 47.9896 6.3734 110° East  Level FlightAware Approximate
01:22AM 47.9434 6.5597 109° East  Level FlightAware Approximate
01:23AM 47.8995 6.7470 110° East  Level FlightAware Approximate
01:24AM 47.8542 6.9334 110° East  Level FlightAware Approximate
01:25AM 47.8088 7.1196 110° East  Level FlightAware Approximate
01:26AM 47.7633 7.3056 109° East  Level FlightAware Approximate
01:27AM 47.7206 7.4929 108° East  Level FlightAware Approximate
01:28AM 47.6794 7.6808 111° Southeast  Level FlightAware Approximate
01:29AM 47.6310 7.8647 113° Southeast  Level FlightAware Approximate
01:30AM 47.5794 8.0464 110° East  Level FlightAware Approximate
01:31AM 47.5333 8.2290 111° Southeast  Level FlightAware Approximate
01:32AM 47.4851 8.4114 113° Southeast  Level FlightAware Approximate
01:33AM 47.4500 8.5333 36° Northeast  Level FlightAware Approximate
01:34AM 47.5575 8.6492 216° Southwest  Level Estimated
01:35AM 47.4500 8.5333 36° Northeast  Level Estimated
01:36AM 47.5575 8.6492 216° Southwest  Level Estimated
01:37AM 47.4500 8.5333 360° North  Level Estimated
01:38AM 47.4500 8.5333 36° Northeast  Level FlightAware Approximate
01:39AM 47.5575 8.6492 216° Southwest  Level Estimated
01:40AM 47.4500 8.5333 36° Northeast  Level FlightAware Approximate
01:41AM 47.5575 8.6492 216° Southwest  Level Estimated
01:42AM 47.4500 8.5333 36° Northeast  Level FlightAware Approximate
01:43AM 47.5575 8.6492 216° Southwest  Level Estimated
01:44AM 47.4500 8.5333 216° Southwest  Level FlightAware Approximate